createdAt,value
2022-12-14T00:01:34.732Z,8.82
2022-12-14T00:04:01.458Z,9.32
2022-12-14T00:06:30.779Z,8.70
2022-12-14T00:08:59.958Z,9.03
2022-12-14T00:11:27.512Z,9.23
2022-12-14T00:13:57.149Z,8.88
2022-12-14T00:16:26.389Z,8.85
2022-12-14T00:18:54.599Z,9.10
2022-12-14T00:21:22.081Z,8.87
2022-12-14T00:23:50.384Z,8.55
2022-12-14T00:26:29.681Z,8.88
2022-12-14T00:28:58.071Z,8.30
2022-12-14T00:31:25.408Z,8.83
2022-12-14T00:33:52.617Z,9.23
2022-12-14T00:36:20.270Z,8.80
2022-12-14T00:38:46.990Z,9.20
2022-12-14T00:41:13.821Z,42.65
2022-12-14T00:43:41.037Z,8.83
2022-12-14T00:46:08.475Z,8.60
2022-12-14T00:48:35.697Z,9.50
2022-12-14T00:51:02.449Z,8.68
2022-12-14T00:53:29.202Z,8.73
2022-12-14T00:55:55.961Z,10.90
2022-12-14T00:58:24.938Z,37.37
2022-12-14T01:01:04.042Z,288.70
2022-12-14T01:03:31.537Z,8.00
2022-12-14T01:05:58.854Z,8.75
2022-12-14T01:08:25.910Z,8.80
2022-12-14T01:10:53.058Z,8.52
2022-12-14T01:13:19.736Z,9.10
2022-12-14T01:15:46.839Z,8.40
2022-12-14T01:18:13.681Z,8.80
2022-12-14T01:20:40.345Z,8.68
2022-12-14T01:23:07.165Z,8.80
2022-12-14T01:25:34.325Z,8.85
2022-12-14T01:28:01.026Z,8.25
2022-12-14T01:30:27.897Z,8.40
2022-12-14T01:32:54.619Z,8.67
2022-12-14T01:35:21.356Z,8.88
2022-12-14T01:37:49.196Z,8.50
2022-12-14T01:40:16.824Z,8.52
2022-12-14T01:42:43.653Z,8.85
2022-12-14T01:45:22.181Z,8.85
2022-12-14T01:47:59.950Z,8.50
2022-12-14T01:50:29.926Z,8.48
2022-12-14T01:53:01.611Z,8.40
2022-12-14T01:55:33.437Z,9.05
2022-12-14T01:58:12.193Z,8.97
2022-12-14T02:00:38.991Z,8.18
2022-12-14T02:03:15.069Z,8.55
2022-12-14T02:05:47.695Z,8.55
2022-12-14T02:08:16.245Z,8.35
2022-12-14T02:10:44.569Z,8.40
2022-12-14T02:13:31.479Z,8.85
2022-12-14T02:15:58.696Z,8.68
2022-12-14T02:18:28.238Z,8.43
2022-12-14T02:21:01.407Z,9.02
2022-12-14T02:23:37.375Z,8.20
2022-12-14T02:26:31.043Z,8.48
2022-12-14T02:29:07.002Z,8.82
2022-12-14T02:31:41.019Z,8.68
2022-12-14T02:34:39.985Z,8.70
2022-12-14T02:37:25.143Z,8.73
2022-12-14T02:40:22.539Z,8.32
2022-12-14T02:43:17.282Z,8.77
2022-12-14T02:45:54.946Z,9.10
2022-12-14T02:48:26.270Z,8.40
2022-12-14T02:51:30.972Z,8.38
2022-12-14T02:54:02.640Z,8.52
2022-12-14T02:56:36.546Z,8.50
2022-12-14T02:59:06.423Z,8.68
2022-12-14T03:01:36.678Z,8.83
2022-12-14T03:04:03.820Z,8.70
2022-12-14T03:06:30.873Z,8.20
2022-12-14T03:09:11.066Z,8.32
2022-12-14T03:11:48.993Z,8.60
2022-12-14T03:14:29.734Z,8.80
2022-12-14T03:17:05.135Z,8.68
2022-12-14T03:19:44.705Z,8.05
2022-12-14T03:22:22.190Z,8.52
2022-12-14T03:24:53.789Z,8.48
2022-12-14T03:27:27.440Z,8.65
2022-12-14T03:30:05.514Z,8.27
2022-12-14T03:32:35.624Z,8.57
2022-12-14T03:35:07.399Z,8.55
2022-12-14T03:37:53.571Z,8.50
2022-12-14T03:40:28.733Z,8.75
2022-12-14T03:43:40.173Z,8.88
2022-12-14T03:46:22.802Z,8.15
2022-12-14T03:48:54.678Z,8.68
2022-12-14T03:51:35.344Z,8.43
2022-12-14T03:54:08.618Z,8.35
2022-12-14T03:56:48.315Z,8.40
2022-12-14T03:59:34.198Z,8.60
2022-12-14T04:02:07.519Z,8.60
2022-12-14T04:04:39.735Z,8.68
2022-12-14T04:07:25.547Z,8.52
2022-12-14T04:10:25.439Z,8.27
2022-12-14T04:13:17.918Z,8.20
2022-12-14T04:16:06.815Z,8.93
2022-12-14T04:18:59.800Z,9.45
2022-12-14T04:21:44.596Z,74.72
2022-12-14T04:24:50.798Z,9.43
2022-12-14T04:27:39.126Z,10.05
2022-12-14T04:30:08.600Z,9.68
2022-12-14T04:32:51.805Z,10.18
2022-12-14T04:35:53.938Z,9.65
2022-12-14T04:38:32.982Z,9.80
2022-12-14T04:41:06.403Z,9.63
2022-12-14T04:43:39.055Z,9.45
2022-12-14T04:46:13.870Z,8.98
2022-12-14T04:48:56.886Z,8.75
2022-12-14T04:51:27.523Z,9.25
2022-12-14T04:53:59.974Z,9.05
2022-12-14T04:56:44.335Z,9.60
2022-12-14T04:59:11.155Z,9.23
2022-12-14T05:01:48.927Z,9.17
2022-12-14T05:04:40.941Z,9.38
2022-12-14T05:07:32.267Z,9.20
2022-12-14T05:10:16.445Z,9.40
2022-12-14T05:13:08.475Z,8.60
2022-12-14T05:15:49.120Z,9.35
2022-12-14T05:18:16.314Z,8.77
2022-12-14T05:20:43.165Z,8.80
2022-12-14T05:23:09.980Z,9.13
2022-12-14T05:25:36.689Z,9.07
2022-12-14T05:28:03.714Z,9.05
2022-12-14T05:30:30.707Z,8.63
2022-12-14T05:32:57.758Z,8.60
2022-12-14T05:35:24.497Z,8.82
2022-12-14T05:37:51.237Z,9.07
2022-12-14T05:40:18.229Z,8.30
2022-12-14T05:42:47.699Z,8.90
2022-12-14T05:45:17.841Z,9.25
2022-12-14T05:47:45.026Z,8.40
2022-12-14T05:50:12.102Z,8.57
2022-12-14T05:52:38.902Z,9.43
2022-12-14T05:55:06.589Z,8.82
2022-12-14T05:57:33.339Z,9.20
2022-12-14T06:00:00.169Z,8.73
2022-12-14T06:02:27.145Z,8.68
2022-12-14T06:04:54.056Z,9.07
2022-12-14T06:07:27.300Z,9.20
2022-12-14T06:09:54.513Z,8.23
2022-12-14T06:12:21.236Z,8.82
2022-12-14T06:14:48.637Z,8.55
2022-12-14T06:17:15.294Z,8.98
2022-12-14T06:19:43.039Z,8.93
2022-12-14T06:22:16.809Z,9.05
2022-12-14T06:24:43.519Z,9.18
2022-12-14T06:27:10.253Z,8.80
2022-12-14T06:29:36.980Z,8.85
2022-12-14T06:32:03.822Z,8.90
2022-12-14T06:34:32.897Z,8.57
2022-12-14T06:37:03.566Z,8.70
2022-12-14T06:39:30.407Z,8.88
2022-12-14T06:41:57.169Z,9.17
2022-12-14T06:44:23.886Z,9.27
2022-12-14T06:46:50.736Z,9.02
2022-12-14T06:49:17.524Z,8.77
2022-12-14T06:51:44.318Z,9.27
2022-12-14T06:54:12.678Z,8.82
2022-12-14T06:56:40.614Z,8.68
2022-12-14T06:59:08.668Z,8.77
2022-12-14T07:01:36.792Z,9.02
2022-12-14T07:04:05.003Z,8.95
2022-12-14T07:06:34.787Z,9.40
2022-12-14T07:09:02.252Z,9.00
2022-12-14T07:11:30.879Z,9.27
2022-12-14T07:14:00.673Z,8.70
2022-12-14T07:16:31.735Z,8.82
2022-12-14T07:18:59.135Z,8.63
2022-12-14T07:21:26.670Z,8.93
2022-12-14T07:23:53.541Z,8.77
2022-12-14T07:26:23.136Z,8.80
2022-12-14T07:28:50.770Z,9.10
2022-12-14T07:31:23.105Z,9.43
2022-12-14T07:33:52.424Z,8.88
2022-12-14T07:36:22.241Z,8.52
2022-12-14T07:38:51.426Z,8.80
2022-12-14T07:41:24.212Z,8.48
2022-12-14T07:43:53.594Z,8.80
2022-12-14T07:46:23.890Z,8.68
2022-12-14T07:48:56.256Z,8.85
2022-12-14T07:51:25.148Z,8.52
2022-12-14T07:53:52.665Z,9.05
2022-12-14T07:56:21.883Z,9.23
2022-12-14T07:58:49.207Z,9.05
2022-12-14T08:01:20.529Z,9.18
2022-12-14T08:03:49.758Z,8.73
2022-12-14T08:06:18.352Z,8.98
2022-12-14T08:08:46.006Z,8.90
2022-12-14T08:11:14.398Z,8.95
2022-12-14T08:13:43.199Z,9.00
2022-12-14T08:16:13.394Z,9.23
2022-12-14T08:18:40.913Z,8.65
2022-12-14T08:21:08.968Z,9.48
2022-12-14T08:23:36.566Z,8.45
2022-12-14T08:26:05.005Z,8.93
2022-12-14T08:28:32.787Z,8.88
2022-12-14T08:31:12.268Z,8.90
2022-12-14T08:33:40.086Z,9.07
2022-12-14T08:36:13.021Z,9.05
2022-12-14T08:38:40.944Z,9.10
2022-12-14T08:41:16.544Z,9.55
2022-12-14T08:43:55.131Z,9.50
2022-12-14T08:46:22.638Z,9.43
2022-12-14T08:48:52.422Z,9.60
2022-12-14T08:51:20.497Z,9.50
2022-12-14T08:53:47.703Z,9.10
2022-12-14T08:56:19.059Z,9.38
2022-12-14T08:58:46.103Z,9.45
2022-12-14T09:01:15.789Z,9.70
2022-12-14T09:03:44.957Z,9.50
2022-12-14T09:06:18.054Z,9.30
2022-12-14T09:08:45.187Z,9.75
2022-12-14T09:11:13.930Z,10.03
2022-12-14T09:13:43.215Z,9.27
2022-12-14T09:16:15.793Z,9.90
2022-12-14T09:18:42.881Z,9.50
2022-12-14T09:21:10.798Z,9.70
2022-12-14T09:23:38.760Z,10.30
2022-12-14T09:26:10.121Z,9.88
2022-12-14T09:28:39.712Z,9.50
2022-12-14T09:31:09.965Z,9.73
2022-12-14T09:33:36.984Z,9.93
2022-12-14T09:36:13.791Z,9.93
2022-12-14T09:38:46.957Z,9.85
2022-12-14T09:41:26.485Z,10.27
2022-12-14T09:44:04.354Z,10.07
2022-12-14T09:46:52.644Z,9.98
2022-12-14T09:49:41.159Z,9.38
2022-12-14T09:52:15.710Z,9.50
2022-12-14T09:54:44.346Z,10.23
2022-12-14T09:57:18.787Z,10.52
2022-12-14T09:59:45.900Z,9.95
2022-12-14T10:02:31.338Z,9.93
2022-12-14T10:05:05.398Z,10.10
2022-12-14T10:07:55.061Z,10.07
2022-12-14T10:10:28.570Z,9.93
2022-12-14T10:13:01.618Z,13.55
2022-12-14T10:15:35.121Z,15.38
2022-12-14T10:21:22.947Z,17.07
2022-12-14T10:24:02.460Z,16.73
2022-12-14T10:26:37.094Z,16.40
2022-12-14T10:29:11.666Z,16.92
2022-12-14T10:31:44.722Z,16.60
2022-12-14T10:34:24.896Z,16.27
2022-12-14T10:36:59.442Z,15.77
2022-12-14T10:39:49.482Z,16.02
2022-12-14T10:42:23.098Z,15.63
2022-12-14T10:45:09.695Z,15.73
2022-12-14T10:47:53.717Z,14.77
2022-12-14T10:50:34.549Z,14.32
2022-12-14T10:53:04.051Z,14.27
2022-12-14T10:55:35.692Z,14.20
2022-12-14T10:58:03.572Z,14.00
2022-12-14T11:00:30.373Z,14.52
2022-12-14T11:02:58.327Z,13.23
2022-12-14T11:05:40.990Z,13.43
2022-12-14T11:08:08.782Z,13.70
2022-12-14T11:10:39.288Z,13.05
2022-12-14T11:13:08.991Z,13.10
2022-12-14T11:15:37.675Z,12.52
2022-12-14T11:18:17.273Z,12.97
2022-12-14T11:20:59.359Z,13.10
2022-12-14T11:23:29.411Z,12.73
2022-12-14T11:26:02.014Z,12.95
2022-12-14T11:28:36.989Z,12.20
2022-12-14T11:31:22.050Z,11.73
2022-12-14T11:33:54.893Z,11.75
2022-12-14T11:36:25.413Z,11.68
2022-12-14T11:39:03.144Z,11.80
2022-12-14T11:41:36.908Z,11.50
2022-12-14T11:44:14.391Z,11.70
2022-12-14T11:47:02.247Z,11.68
2022-12-14T11:49:42.373Z,10.68
2022-12-14T11:52:13.520Z,10.80
2022-12-14T11:54:50.210Z,11.05
2022-12-14T11:57:32.218Z,11.07
2022-12-14T12:00:04.638Z,10.38
2022-12-14T12:02:36.263Z,10.60
2022-12-14T12:05:14.464Z,10.10
2022-12-14T12:07:50.450Z,10.60
2022-12-14T12:10:28.155Z,10.75
2022-12-14T12:13:01.278Z,10.63
2022-12-14T12:15:31.171Z,10.13
2022-12-14T12:18:25.664Z,10.03
2022-12-14T12:20:55.860Z,10.33
2022-12-14T12:23:27.166Z,9.65
2022-12-14T12:25:56.428Z,9.97
2022-12-14T12:28:28.358Z,9.90
2022-12-14T12:31:09.013Z,10.30
2022-12-14T12:33:47.305Z,9.40
2022-12-14T12:36:23.382Z,10.18
2022-12-14T12:39:15.546Z,9.85
2022-12-14T12:42:03.621Z,9.80
2022-12-14T12:44:52.405Z,10.27
2022-12-14T12:47:46.248Z,9.48
2022-12-14T12:50:18.092Z,9.48
2022-12-14T12:53:14.680Z,9.40
2022-12-14T12:55:47.238Z,9.50
2022-12-14T12:58:29.232Z,9.20
2022-12-14T13:01:00.073Z,9.17
2022-12-14T13:03:37.485Z,9.00
2022-12-14T13:06:19.871Z,9.18
2022-12-14T13:08:51.568Z,8.63
2022-12-14T13:11:28.822Z,8.60
2022-12-14T13:14:03.295Z,9.10
2022-12-14T13:16:37.111Z,8.98
2022-12-14T13:22:24.674Z,8.68
2022-12-14T13:24:58.688Z,8.23
2022-12-14T13:27:37.956Z,8.50
2022-12-14T13:30:38.776Z,7.75
2022-12-14T13:33:05.845Z,8.32
2022-12-14T13:35:33.111Z,7.95
2022-12-14T13:38:32.651Z,8.18
2022-12-14T13:41:21.354Z,8.48
2022-12-14T13:43:48.504Z,8.07
2022-12-14T13:46:24.702Z,7.95
2022-12-14T13:48:55.399Z,7.75
2022-12-14T13:51:31.137Z,7.33
2022-12-14T13:53:59.526Z,8.05
2022-12-14T13:56:39.473Z,7.45
2022-12-14T13:59:37.909Z,6.73
2022-12-14T14:02:05.890Z,7.80
2022-12-14T14:04:35.727Z,6.97
2022-12-14T14:07:24.346Z,6.85
2022-12-14T14:10:02.053Z,7.03
2022-12-14T14:12:37.819Z,7.28
2022-12-14T14:15:04.785Z,6.32
2022-12-14T14:17:42.691Z,6.63
2022-12-14T14:20:33.016Z,6.90
2022-12-14T14:23:28.424Z,6.32
2022-12-14T14:26:18.138Z,6.57
2022-12-14T14:28:49.495Z,6.20
2022-12-14T14:31:16.594Z,6.28
2022-12-14T14:33:54.755Z,6.30
2022-12-14T14:36:33.072Z,6.15
2022-12-14T14:39:19.001Z,6.00
2022-12-14T14:41:53.699Z,6.43
2022-12-14T14:44:33.752Z,6.43
2022-12-14T14:47:07.394Z,6.85
2022-12-14T14:49:40.194Z,6.82
2022-12-14T14:52:41.555Z,7.03
2022-12-14T14:55:52.664Z,6.90
2022-12-14T14:58:46.934Z,6.85
2022-12-14T15:01:29.122Z,6.10
2022-12-14T15:04:03.873Z,6.43
2022-12-14T15:06:40.919Z,6.17
2022-12-14T15:09:13.310Z,6.15
2022-12-14T15:11:50.818Z,6.22
2022-12-14T15:14:33.074Z,6.28
2022-12-14T15:17:19.318Z,6.22
2022-12-14T15:19:47.637Z,6.13
2022-12-14T15:22:19.363Z,6.53
2022-12-14T15:24:50.579Z,6.70
2022-12-14T15:27:27.142Z,6.35
2022-12-14T15:30:11.697Z,6.60
2022-12-14T15:32:54.277Z,6.55
2022-12-14T15:35:28.437Z,6.55
2022-12-14T15:38:00.251Z,6.50
2022-12-14T15:40:32.101Z,6.47
2022-12-14T15:43:01.351Z,6.75
2022-12-14T15:45:31.496Z,6.53
2022-12-14T15:48:14.039Z,6.30
2022-12-14T15:50:45.142Z,6.90
2022-12-14T15:53:21.809Z,6.90
2022-12-14T15:56:00.300Z,6.93
2022-12-14T15:58:35.602Z,7.45
2022-12-14T16:01:13.908Z,7.27
2022-12-14T16:03:45.047Z,8.10
2022-12-14T16:06:14.188Z,25.63
2022-12-14T16:08:52.120Z,40.88
2022-12-14T16:11:44.441Z,52.97
2022-12-14T16:14:26.433Z,66.37
2022-12-14T16:16:53.645Z,73.20
2022-12-14T16:19:29.849Z,81.88
2022-12-14T16:22:10.228Z,88.63
2022-12-14T16:24:38.244Z,94.85
2022-12-14T16:27:05.443Z,99.47
2022-12-14T16:29:33.518Z,101.83
2022-12-14T16:32:06.921Z,104.40
2022-12-14T16:34:34.270Z,107.10
2022-12-14T16:39:52.363Z,98.50
2022-12-14T16:42:24.999Z,92.73
2022-12-14T16:44:54.015Z,84.80
2022-12-14T16:47:20.759Z,85.07
2022-12-14T16:49:54.913Z,84.50
2022-12-14T16:52:26.229Z,77.45
2022-12-14T16:55:17.657Z,77.55
2022-12-14T16:57:55.665Z,74.68
2022-12-14T17:00:30.591Z,70.65
2022-12-14T17:03:00.491Z,69.55
2022-12-14T17:05:38.757Z,67.28
2022-12-14T17:08:07.170Z,65.77
2022-12-14T17:10:34.754Z,64.20
2022-12-14T17:13:03.681Z,63.03
2022-12-14T17:15:33.413Z,60.08
2022-12-14T17:18:03.890Z,58.33
2022-12-14T17:20:36.238Z,56.50
2022-12-14T17:23:04.274Z,58.33
2022-12-14T17:25:32.735Z,54.83
2022-12-14T17:28:00.501Z,53.08
2022-12-14T17:30:27.557Z,52.75
2022-12-14T17:32:55.512Z,50.92
2022-12-14T17:35:25.273Z,52.77
2022-12-14T17:37:53.092Z,51.33
2022-12-14T17:40:19.849Z,50.85
2022-12-14T17:42:51.626Z,50.10
2022-12-14T17:45:24.583Z,47.28
2022-12-14T17:47:51.841Z,45.50
2022-12-14T17:50:19.554Z,45.78
2022-12-14T17:52:47.585Z,43.50
2022-12-14T17:55:19.930Z,43.45
2022-12-14T17:57:47.145Z,41.08
2022-12-14T18:00:39.954Z,43.00
2022-12-14T18:03:08.958Z,40.42
2022-12-14T18:05:36.377Z,40.17
2022-12-14T18:08:03.669Z,39.40
2022-12-14T18:10:30.985Z,37.97
2022-12-14T18:12:58.490Z,36.83
2022-12-14T18:15:37.792Z,36.95
2022-12-14T18:18:06.774Z,37.03
2022-12-14T18:20:34.023Z,35.78
2022-12-14T18:23:00.923Z,34.42
2022-12-14T18:25:30.245Z,33.92
2022-12-14T18:27:57.494Z,34.00
2022-12-14T18:30:24.729Z,32.72
2022-12-14T18:32:51.923Z,33.22
2022-12-14T18:35:21.190Z,32.13
2022-12-14T18:37:49.257Z,32.33
2022-12-14T18:40:19.391Z,31.65
2022-12-14T18:42:47.028Z,31.75
2022-12-14T18:45:22.626Z,30.15
2022-12-14T18:47:49.822Z,29.98
2022-12-14T18:50:18.575Z,29.45
2022-12-14T18:52:46.708Z,30.17
2022-12-14T18:55:19.377Z,29.35
2022-12-14T18:57:47.954Z,29.20
2022-12-14T19:00:19.291Z,28.77
2022-12-14T19:02:47.025Z,28.73
2022-12-14T19:05:23.228Z,28.35
2022-12-14T19:07:52.766Z,27.67
2022-12-14T19:10:22.799Z,27.15
2022-12-14T19:12:50.247Z,27.05
2022-12-14T19:15:20.167Z,27.42
2022-12-14T19:17:47.054Z,27.10
2022-12-14T19:20:14.772Z,27.17
2022-12-14T19:22:42.265Z,29.13
2022-12-14T19:25:09.967Z,30.08
2022-12-14T19:28:15.578Z,30.83
2022-12-14T19:30:24.297Z,30.88
2022-12-14T19:32:55.506Z,29.90
2022-12-14T19:35:23.578Z,29.67
2022-12-14T19:37:50.762Z,28.95
2022-12-14T19:40:18.018Z,28.10
2022-12-14T19:42:46.348Z,27.50
2022-12-14T19:45:13.766Z,27.17
2022-12-14T19:47:40.697Z,25.23
2022-12-14T19:50:08.230Z,25.02
2022-12-14T19:52:35.089Z,24.92
2022-12-14T19:55:02.411Z,24.40
2022-12-14T19:57:29.410Z,23.85
2022-12-14T19:59:57.146Z,22.45
2022-12-14T20:02:24.066Z,22.47
2022-12-14T20:04:51.017Z,22.63
2022-12-14T20:07:17.985Z,21.50
2022-12-14T20:09:44.688Z,20.70
2022-12-14T20:12:11.760Z,21.33
2022-12-14T20:14:42.624Z,20.15
2022-12-14T20:17:11.179Z,19.23
2022-12-14T20:19:39.599Z,19.42
2022-12-14T20:22:08.142Z,18.92
2022-12-14T20:24:35.796Z,19.07
2022-12-14T20:27:02.908Z,18.63
2022-12-14T20:29:29.738Z,18.57
2022-12-14T20:31:56.743Z,17.30
2022-12-14T20:34:24.286Z,17.65
2022-12-14T20:36:51.130Z,17.35
2022-12-14T20:39:17.824Z,17.20
2022-12-14T20:41:44.633Z,16.80
2022-12-14T20:44:15.858Z,16.90
2022-12-14T20:46:45.384Z,16.23
2022-12-14T20:49:15.668Z,16.00
2022-12-14T20:51:43.739Z,16.43
2022-12-14T20:54:16.435Z,15.63
2022-12-14T20:56:43.706Z,14.70
2022-12-14T20:59:10.849Z,15.43
2022-12-14T21:01:38.956Z,15.10
2022-12-14T21:04:06.547Z,14.35
2022-12-14T21:06:37.454Z,15.10
2022-12-14T21:09:11.586Z,14.60
2022-12-14T21:12:02.277Z,13.68
2022-12-14T21:14:32.302Z,14.20
2022-12-14T21:17:01.079Z,14.82
2022-12-14T21:19:28.737Z,14.85
2022-12-14T21:21:55.427Z,14.40
2022-12-14T21:25:02.222Z,14.73
2022-12-14T21:27:16.438Z,14.70
2022-12-14T21:29:43.271Z,14.32
2022-12-14T21:32:10.091Z,15.00
2022-12-14T21:34:36.949Z,14.35
2022-12-14T21:37:03.702Z,14.50
2022-12-14T21:39:30.405Z,14.43
2022-12-14T21:42:15.653Z,14.60
2022-12-14T21:44:43.849Z,13.55
2022-12-14T21:47:15.482Z,13.63
2022-12-14T21:49:43.853Z,13.80
2022-12-14T21:52:14.151Z,13.87
2022-12-14T21:54:41.486Z,13.23
2022-12-14T21:57:33.026Z,13.18
2022-12-14T22:00:00.041Z,13.40
2022-12-14T22:02:27.077Z,13.82
2022-12-14T22:05:00.873Z,13.32
2022-12-14T22:07:33.697Z,13.68
2022-12-14T22:10:00.893Z,13.77
2022-12-14T22:12:27.853Z,13.27
2022-12-14T22:14:54.824Z,12.95
2022-12-14T22:17:21.541Z,12.77
2022-12-14T22:19:50.625Z,12.93
2022-12-14T22:22:17.428Z,13.02
2022-12-14T22:24:44.775Z,12.57
2022-12-14T22:27:12.700Z,13.20
2022-12-14T22:29:39.657Z,12.40
2022-12-14T22:32:07.221Z,12.48
2022-12-14T22:34:34.286Z,12.45
2022-12-14T22:37:01.586Z,12.25
2022-12-14T22:39:28.386Z,11.93
2022-12-14T22:41:55.089Z,11.80
2022-12-14T22:44:21.766Z,11.90
2022-12-14T22:46:48.451Z,11.57
2022-12-14T22:49:16.720Z,11.70
2022-12-14T22:51:43.580Z,11.93
2022-12-14T22:54:18.022Z,11.38
2022-12-14T22:56:54.070Z,11.32
2022-12-14T22:59:25.672Z,11.70
2022-12-14T23:01:53.286Z,10.90
2022-12-14T23:04:20.869Z,11.00
2022-12-14T23:06:47.838Z,11.00
2022-12-14T23:09:33.221Z,10.95
2022-12-14T23:12:21.872Z,10.80
2022-12-14T23:15:08.058Z,10.20
2022-12-14T23:17:54.006Z,10.52
2022-12-14T23:20:39.501Z,10.45
2022-12-14T23:23:28.344Z,9.70
2022-12-14T23:26:13.978Z,10.10
2022-12-14T23:28:59.414Z,10.30
2022-12-14T23:31:45.002Z,10.00
2022-12-14T23:34:30.456Z,10.05
2022-12-14T23:37:20.043Z,9.90
2022-12-14T23:40:06.002Z,10.50
2022-12-14T23:42:51.714Z,10.50
2022-12-14T23:45:37.078Z,9.50
2022-12-14T23:48:22.763Z,9.77
2022-12-14T23:51:08.221Z,10.15
2022-12-14T23:53:53.853Z,9.63
2022-12-14T23:56:39.685Z,9.73
2022-12-14T23:59:31.575Z,9.65
